createdAt,value
2022-09-30T00:00:36.100Z,9.745182
2022-09-30T00:01:36.118Z,9.745393
2022-09-30T00:02:36.112Z,9.745402
2022-09-30T00:03:36.046Z,9.745143
2022-09-30T00:04:36.045Z,9.745664
2022-09-30T00:05:36.063Z,9.745528
2022-09-30T00:06:36.028Z,9.745279
2022-09-30T00:07:36.020Z,9.745569
2022-09-30T00:08:36.013Z,9.745556
2022-09-30T00:09:36.090Z,9.745589
2022-09-30T00:10:36.023Z,9.745434
2022-09-30T00:11:35.990Z,9.745615
2022-09-30T00:12:35.981Z,9.745714
2022-09-30T00:13:35.973Z,9.745679
2022-09-30T00:14:35.964Z,9.745589
2022-09-30T00:15:35.991Z,9.745540
2022-09-30T00:16:36.009Z,9.745505
2022-09-30T00:17:35.939Z,9.745539
2022-09-30T00:18:35.927Z,9.745588
2022-09-30T00:19:35.924Z,9.745656
2022-09-30T00:20:35.938Z,9.745666
2022-09-30T00:21:35.904Z,9.745386
2022-09-30T00:22:35.895Z,9.745479
2022-09-30T00:23:35.887Z,9.745445
2022-09-30T00:24:35.882Z,9.745503
2022-09-30T00:25:35.872Z,9.745461
2022-09-30T00:26:35.890Z,9.745609
2022-09-30T00:27:35.857Z,9.745641
2022-09-30T00:28:35.850Z,9.745415
2022-09-30T00:29:35.844Z,9.745494
2022-09-30T00:30:35.834Z,9.745668
2022-09-30T00:31:35.934Z,9.745698
2022-09-30T00:32:35.818Z,9.745563
2022-09-30T00:33:35.809Z,9.745700
2022-09-30T00:34:35.811Z,9.745527
2022-09-30T00:35:35.793Z,9.745816
2022-09-30T00:36:35.815Z,9.745481
2022-09-30T00:37:35.776Z,9.745594
2022-09-30T00:38:35.768Z,9.745642
2022-09-30T00:39:35.763Z,9.745694
2022-09-30T00:40:35.759Z,9.745511
2022-09-30T00:41:35.774Z,9.745354
2022-09-30T00:42:36.735Z,9.745450
2022-09-30T00:43:35.729Z,9.745478
2022-09-30T00:44:35.723Z,9.745379
2022-09-30T00:45:35.712Z,9.745568
2022-09-30T00:46:35.801Z,9.745107
2022-09-30T00:47:35.699Z,9.745306
2022-09-30T00:48:35.692Z,9.745317
2022-09-30T00:49:35.682Z,9.745482
2022-09-30T00:50:35.679Z,9.745466
2022-09-30T00:51:35.692Z,9.745491
2022-09-30T00:52:35.661Z,9.745378
2022-09-30T00:53:35.650Z,9.745137
2022-09-30T00:54:35.649Z,9.745301
2022-09-30T00:55:35.638Z,9.745524
2022-09-30T00:56:35.656Z,9.745607
2022-09-30T00:57:35.625Z,9.745985
2022-09-30T00:58:35.605Z,9.745350
2022-09-30T00:59:35.600Z,9.745286
2022-09-30T01:00:35.720Z,9.745860
2022-09-30T01:01:35.662Z,9.745326
2022-09-30T01:02:35.576Z,9.745003
2022-09-30T01:03:35.594Z,9.744774
2022-09-30T01:04:35.563Z,9.745091
2022-09-30T01:05:35.556Z,9.745145
2022-09-30T01:06:35.570Z,9.745179
2022-09-30T01:07:35.536Z,9.745341
2022-09-30T01:08:35.526Z,9.745303
2022-09-30T01:09:35.638Z,9.745337
2022-09-30T01:10:35.514Z,9.745095
2022-09-30T01:11:35.529Z,9.745360
2022-09-30T01:12:35.494Z,9.745280
2022-09-30T01:13:35.490Z,9.744981
2022-09-30T01:14:35.478Z,9.745496
2022-09-30T01:15:35.470Z,9.745231
2022-09-30T01:16:35.504Z,9.745028
2022-09-30T01:17:35.460Z,9.745398
2022-09-30T01:18:35.442Z,9.745394
2022-09-30T01:19:35.435Z,9.745328
2022-09-30T01:20:35.436Z,9.745451
2022-09-30T01:21:35.450Z,9.745131
2022-09-30T01:22:39.975Z,9.745449
2022-09-30T01:23:37.407Z,9.745530
2022-09-30T01:24:35.402Z,9.745194
2022-09-30T01:25:35.393Z,9.745112
2022-09-30T01:26:35.415Z,9.745041
2022-09-30T01:27:35.377Z,9.745115
2022-09-30T01:28:35.374Z,9.745017
2022-09-30T01:29:35.362Z,9.745270
2022-09-30T01:30:35.359Z,9.745275
2022-09-30T01:31:35.418Z,9.745600
2022-09-30T01:32:35.370Z,9.745379
2022-09-30T01:33:35.334Z,9.745427
2022-09-30T01:34:35.327Z,9.745592
2022-09-30T01:35:35.320Z,9.745592
2022-09-30T01:36:35.311Z,9.745592
2022-09-30T01:37:35.325Z,9.745592
2022-09-30T01:38:35.297Z,9.745592
2022-09-30T01:39:35.279Z,9.745592
2022-09-30T01:40:35.278Z,9.745372
2022-09-30T01:41:35.266Z,9.745372
2022-09-30T01:42:35.286Z,9.745372
2022-09-30T01:43:35.254Z,9.745372
2022-09-30T01:44:35.248Z,9.745372
2022-09-30T01:45:35.247Z,9.745372
2022-09-30T01:46:35.301Z,9.745372
2022-09-30T01:47:35.250Z,9.745372
2022-09-30T01:48:35.225Z,9.745658
2022-09-30T01:49:35.212Z,9.745617
2022-09-30T01:50:35.202Z,9.745724
2022-09-30T01:51:35.191Z,9.745808
2022-09-30T01:52:35.211Z,9.745791
2022-09-30T01:53:35.180Z,9.745742
2022-09-30T01:54:35.169Z,9.745720
2022-09-30T01:55:35.161Z,9.745696
2022-09-30T01:56:35.152Z,9.745749
2022-09-30T01:57:35.172Z,9.745486
2022-09-30T01:58:35.138Z,9.745268
2022-09-30T01:59:35.130Z,9.745271
2022-09-30T02:00:35.224Z,9.746025
2022-09-30T02:01:35.111Z,9.745690
2022-09-30T02:02:35.128Z,9.746062
2022-09-30T02:03:35.094Z,9.745387
2022-09-30T02:04:35.088Z,9.745898
2022-09-30T02:05:35.081Z,9.745703
2022-09-30T02:06:35.080Z,9.745861
2022-09-30T02:07:35.085Z,9.745781
2022-09-30T02:08:35.053Z,9.745703
2022-09-30T02:09:35.079Z,9.745568
2022-09-30T02:10:35.042Z,9.745628
2022-09-30T02:11:35.032Z,9.745583
2022-09-30T02:12:35.063Z,9.745446
2022-09-30T02:13:35.026Z,9.745738
2022-09-30T02:14:35.011Z,9.745919
2022-09-30T02:15:39.705Z,9.745423
2022-09-30T02:16:37.066Z,9.745694
2022-09-30T02:17:35.006Z,9.745840
2022-09-30T02:18:34.976Z,9.746284
2022-09-30T02:19:34.971Z,9.745934
2022-09-30T02:20:34.962Z,9.745674
2022-09-30T02:21:34.955Z,9.746031
2022-09-30T02:22:34.974Z,9.746475
2022-09-30T02:23:34.940Z,9.746030
2022-09-30T02:24:34.932Z,9.746038
2022-09-30T02:25:34.923Z,9.745936
2022-09-30T02:26:34.915Z,9.745611
2022-09-30T02:27:34.948Z,9.745365
2022-09-30T02:28:34.897Z,9.745365
2022-09-30T02:29:34.896Z,9.745365
2022-09-30T02:30:34.889Z,9.745365
2022-09-30T02:31:34.927Z,9.745365
2022-09-30T02:32:34.958Z,9.745365
2022-09-30T02:33:34.863Z,9.745365
2022-09-30T02:34:34.850Z,9.745895
2022-09-30T02:35:34.848Z,9.745895
2022-09-30T02:36:34.831Z,9.746079
2022-09-30T02:37:34.951Z,9.746819
2022-09-30T02:38:34.818Z,9.745724
2022-09-30T02:39:34.809Z,9.744847
2022-09-30T02:40:34.798Z,9.745045
2022-09-30T02:41:34.792Z,9.745486
2022-09-30T02:42:34.808Z,9.745001
2022-09-30T02:43:34.770Z,9.745102
2022-09-30T02:44:34.755Z,9.745545
2022-09-30T02:45:35.757Z,9.745531
2022-09-30T02:46:34.819Z,9.745158
2022-09-30T02:47:34.958Z,9.745168
2022-09-30T02:48:34.744Z,9.745193
2022-09-30T02:49:34.729Z,9.745236
2022-09-30T02:50:34.725Z,9.745989
2022-09-30T02:51:34.714Z,9.745328
2022-09-30T02:52:34.738Z,9.744684
2022-09-30T02:53:34.696Z,9.745392
2022-09-30T02:54:34.694Z,9.745320
2022-09-30T02:55:34.681Z,9.745254
2022-09-30T02:56:34.676Z,9.745140
2022-09-30T02:57:34.668Z,9.744903
2022-09-30T02:58:34.678Z,9.745652
2022-09-30T02:59:34.670Z,9.745488
2022-09-30T03:00:34.680Z,9.745688
2022-09-30T03:01:34.671Z,9.745630
2022-09-30T03:02:34.626Z,9.745532
2022-09-30T03:03:34.644Z,9.745818
2022-09-30T03:04:34.609Z,9.745606
2022-09-30T03:05:34.599Z,9.745545
2022-09-30T03:06:34.595Z,9.745325
2022-09-30T03:07:34.591Z,9.745379
2022-09-30T03:08:34.609Z,9.745513
2022-09-30T03:09:34.674Z,9.745566
2022-09-30T03:10:34.565Z,9.745281
2022-09-30T03:11:34.549Z,9.744593
2022-09-30T03:12:34.546Z,9.744822
2022-09-30T03:13:34.567Z,9.745175
2022-09-30T03:14:34.541Z,9.744884
2022-09-30T03:15:34.519Z,9.744738
2022-09-30T03:16:34.531Z,9.744791
2022-09-30T03:17:34.509Z,9.744474
2022-09-30T03:18:34.523Z,9.744490
2022-09-30T03:19:34.491Z,9.744538
2022-09-30T03:20:34.485Z,9.744852
2022-09-30T03:21:34.477Z,9.745269
2022-09-30T03:22:34.469Z,9.745033
2022-09-30T03:23:34.485Z,9.745055
2022-09-30T03:24:34.453Z,9.745096
2022-09-30T03:25:34.442Z,9.745122
2022-09-30T03:26:34.433Z,9.745131
2022-09-30T03:27:34.434Z,9.744950
2022-09-30T03:28:34.445Z,9.744780
2022-09-30T03:29:34.405Z,9.744799
2022-09-30T03:30:34.406Z,9.744669
2022-09-30T03:31:34.442Z,9.745148
2022-09-30T03:32:34.385Z,9.745531
2022-09-30T03:33:34.403Z,9.745281
2022-09-30T03:34:34.376Z,9.745242
2022-09-30T03:35:34.371Z,9.745363
2022-09-30T03:36:34.350Z,9.745512
2022-09-30T03:37:34.347Z,9.745784
2022-09-30T03:38:34.364Z,9.745815
2022-09-30T03:39:34.328Z,9.745638
2022-09-30T03:40:34.320Z,9.745296
2022-09-30T03:41:34.313Z,9.745519
2022-09-30T03:42:34.301Z,9.745561
2022-09-30T03:43:34.325Z,9.745532
2022-09-30T03:44:34.288Z,9.745508
2022-09-30T03:45:34.284Z,9.745304
2022-09-30T03:46:34.315Z,9.745440
2022-09-30T03:47:34.261Z,9.745523
2022-09-30T03:48:34.286Z,9.745474
2022-09-30T03:49:34.242Z,9.745518
2022-09-30T03:50:34.232Z,9.745292
2022-09-30T03:51:34.225Z,9.745299
2022-09-30T03:52:34.222Z,9.745419
2022-09-30T03:53:34.240Z,9.745440
2022-09-30T03:54:34.215Z,9.745450
2022-09-30T03:55:34.200Z,9.745469
2022-09-30T03:56:34.191Z,9.745433
2022-09-30T03:57:34.181Z,9.745471
2022-09-30T03:58:34.201Z,9.745278
2022-09-30T03:59:34.176Z,9.745509
2022-09-30T04:00:34.242Z,9.745447
2022-09-30T04:01:34.200Z,9.745501
2022-09-30T04:02:34.141Z,9.745604
2022-09-30T04:03:34.156Z,9.745426
2022-09-30T04:04:34.129Z,9.745731
2022-09-30T04:05:34.121Z,9.745665
2022-09-30T04:06:34.122Z,9.745503
2022-09-30T04:07:34.108Z,9.745372
2022-09-30T04:08:34.134Z,9.745472
2022-09-30T04:09:34.117Z,9.745522
2022-09-30T04:10:34.082Z,9.745384
2022-09-30T04:11:34.072Z,9.745603
2022-09-30T04:12:34.071Z,9.745546
2022-09-30T04:13:34.088Z,9.745510
2022-09-30T04:14:34.055Z,9.745496
2022-09-30T04:15:34.052Z,9.745478
2022-09-30T04:16:34.079Z,9.745493
2022-09-30T04:17:34.032Z,9.745519
2022-09-30T04:18:34.053Z,9.745496
2022-09-30T04:19:34.012Z,9.745408
2022-09-30T04:20:34.024Z,9.745546
2022-09-30T04:21:33.997Z,9.745413
2022-09-30T04:22:33.994Z,9.745502
2022-09-30T04:23:34.002Z,9.745515
2022-09-30T04:24:33.971Z,9.745413
2022-09-30T04:25:33.966Z,9.745192
2022-09-30T04:26:33.957Z,9.745179
2022-09-30T04:27:33.989Z,9.745370
2022-09-30T04:28:33.947Z,9.745338
2022-09-30T04:29:33.939Z,9.745365
2022-09-30T04:30:33.946Z,9.745488
2022-09-30T04:31:33.965Z,9.745393
2022-09-30T04:32:33.941Z,9.745465
2022-09-30T04:33:33.902Z,9.745304
2022-09-30T04:34:33.905Z,9.745385
2022-09-30T04:35:33.896Z,9.745407
2022-09-30T04:36:33.884Z,9.745532
2022-09-30T04:37:33.902Z,9.745454
2022-09-30T04:38:33.866Z,9.745442
2022-09-30T04:39:33.860Z,9.745418
2022-09-30T04:40:33.846Z,9.745493
2022-09-30T04:41:33.843Z,9.745341
2022-09-30T04:42:33.835Z,9.745293
2022-09-30T04:43:33.856Z,9.745126
2022-09-30T04:44:33.815Z,9.745417
2022-09-30T04:45:33.865Z,9.745408
2022-09-30T04:46:33.807Z,9.745515
2022-09-30T04:47:33.790Z,9.745139
2022-09-30T04:48:33.813Z,9.745401
2022-09-30T04:49:33.773Z,9.745320
2022-09-30T04:50:33.773Z,9.745442
2022-09-30T04:51:33.754Z,9.745870
2022-09-30T04:52:33.743Z,9.745638
2022-09-30T04:53:33.774Z,9.745551
2022-09-30T04:54:33.737Z,9.745550
2022-09-30T04:55:33.727Z,9.745635
2022-09-30T04:56:33.718Z,9.745551
2022-09-30T04:57:33.833Z,9.745423
2022-09-30T04:58:37.046Z,9.745692
2022-09-30T04:59:34.692Z,9.745387
2022-09-30T05:00:33.738Z,9.745541
2022-09-30T05:01:33.687Z,9.745587
2022-09-30T05:02:33.682Z,9.745672
2022-09-30T05:03:33.694Z,9.745601
2022-09-30T05:04:33.659Z,9.745597
2022-09-30T05:05:33.655Z,9.745757
2022-09-30T05:06:33.641Z,9.745683
2022-09-30T05:07:33.641Z,9.745633
2022-09-30T05:08:33.650Z,9.745659
2022-09-30T05:09:33.652Z,9.745594
2022-09-30T05:10:33.619Z,9.745651
2022-09-30T05:11:33.612Z,9.745692
2022-09-30T05:12:33.595Z,9.745582
2022-09-30T05:13:33.615Z,9.745685
2022-09-30T05:14:33.581Z,9.745682
2022-09-30T05:15:33.577Z,9.745631
2022-09-30T05:16:33.666Z,9.745583
2022-09-30T05:17:33.564Z,9.745480
2022-09-30T05:18:33.575Z,9.745425
2022-09-30T05:19:33.535Z,9.745377
2022-09-30T05:20:33.526Z,9.745569
2022-09-30T05:21:33.528Z,9.745547
2022-09-30T05:22:33.524Z,9.745727
2022-09-30T05:23:33.539Z,9.745780
2022-09-30T05:24:33.501Z,9.745773
2022-09-30T05:25:33.489Z,9.745421
2022-09-30T05:26:33.493Z,9.745484
2022-09-30T05:27:33.472Z,9.745494
2022-09-30T05:28:33.494Z,9.745580
2022-09-30T05:29:33.463Z,9.745558
2022-09-30T05:30:33.447Z,9.745138
2022-09-30T05:31:33.483Z,9.745232
2022-09-30T05:32:33.431Z,9.745424
2022-09-30T05:33:33.459Z,9.745415
2022-09-30T05:34:33.418Z,9.745333
2022-09-30T05:35:33.407Z,9.745436
2022-09-30T05:36:33.402Z,9.745509
2022-09-30T05:37:33.399Z,9.745579
2022-09-30T05:38:33.429Z,9.745321
2022-09-30T05:39:33.380Z,9.745469
2022-09-30T05:40:33.375Z,9.746217
2022-09-30T05:41:33.369Z,9.745896
2022-09-30T05:42:33.362Z,9.745395
2022-09-30T05:43:33.375Z,9.745457
2022-09-30T05:44:33.349Z,9.745562
2022-09-30T05:45:33.333Z,9.745482
2022-09-30T05:46:33.413Z,9.745387
2022-09-30T05:47:33.316Z,9.745455
2022-09-30T05:48:33.346Z,9.745460
2022-09-30T05:49:33.304Z,9.745474
2022-09-30T05:50:33.297Z,9.745483
2022-09-30T05:51:33.352Z,9.745454
2022-09-30T05:52:33.287Z,9.745547
2022-09-30T05:53:33.297Z,9.745323
2022-09-30T05:54:33.265Z,9.745404
2022-09-30T05:55:38.366Z,9.745496
2022-09-30T05:56:35.245Z,9.745305
2022-09-30T05:57:33.244Z,9.745473
2022-09-30T05:58:33.266Z,9.745549
2022-09-30T05:59:33.229Z,9.745452
2022-09-30T06:00:33.219Z,9.745573
2022-09-30T06:01:33.231Z,9.745903
2022-09-30T06:02:33.295Z,9.745243
2022-09-30T06:03:33.225Z,9.745297
2022-09-30T06:04:33.184Z,9.745461
2022-09-30T06:05:33.182Z,9.745330
2022-09-30T06:06:33.174Z,9.745425
2022-09-30T06:07:33.170Z,9.745356
2022-09-30T06:08:33.187Z,9.745359
2022-09-30T06:09:33.193Z,9.745487
2022-09-30T06:10:33.143Z,9.745470
2022-09-30T06:11:33.128Z,9.745428
2022-09-30T06:12:33.123Z,9.745551
2022-09-30T06:13:33.120Z,9.745625
2022-09-30T06:14:33.131Z,9.745490
2022-09-30T06:15:33.093Z,9.745566
2022-09-30T06:16:34.155Z,9.745588
2022-09-30T06:17:33.085Z,9.745543
2022-09-30T06:18:33.074Z,9.745713
2022-09-30T06:19:33.094Z,9.745594
2022-09-30T06:20:33.054Z,9.745569
2022-09-30T06:21:33.054Z,9.745478
2022-09-30T06:22:33.041Z,9.745384
2022-09-30T06:23:33.049Z,9.745486
2022-09-30T06:24:34.048Z,9.745589
2022-09-30T06:25:33.022Z,9.745645
2022-09-30T06:26:33.009Z,9.745591
2022-09-30T06:27:33.003Z,9.745457
2022-09-30T06:28:32.998Z,9.745495
2022-09-30T06:29:33.018Z,9.745607
2022-09-30T06:30:35.263Z,9.745755
2022-09-30T06:31:34.011Z,9.745616
2022-09-30T06:32:32.962Z,9.745525
2022-09-30T06:33:32.958Z,9.745388
2022-09-30T06:34:32.973Z,9.745588
2022-09-30T06:35:32.942Z,9.745686
2022-09-30T06:36:32.935Z,9.745765
2022-09-30T06:37:32.925Z,9.745611
2022-09-30T06:38:32.922Z,9.745603
2022-09-30T06:39:32.934Z,9.745623
2022-09-30T06:40:32.898Z,9.745581
2022-09-30T06:41:32.892Z,9.745650
2022-09-30T06:42:32.872Z,9.745582
2022-09-30T06:43:41.527Z,9.745262
2022-09-30T06:44:40.673Z,9.745479
2022-09-30T06:45:34.065Z,9.745674
2022-09-30T06:46:34.026Z,9.745748
2022-09-30T06:47:32.897Z,9.745575
2022-09-30T06:48:38.315Z,9.745466
2022-09-30T06:49:46.340Z,9.745412
2022-09-30T06:50:34.821Z,9.745398
2022-09-30T06:51:32.817Z,9.745551
2022-09-30T06:52:32.810Z,9.745502
2022-09-30T06:53:32.831Z,9.745693
2022-09-30T06:54:32.825Z,9.745514
2022-09-30T06:55:32.795Z,9.745506
2022-09-30T06:56:32.783Z,9.745558
2022-09-30T06:57:32.773Z,9.745273
2022-09-30T06:58:32.767Z,9.745288
2022-09-30T06:59:32.787Z,9.745175
2022-09-30T07:00:32.768Z,9.745262
2022-09-30T07:01:32.742Z,9.745335
2022-09-30T07:02:32.755Z,9.745426
2022-09-30T07:03:32.716Z,9.745214
2022-09-30T07:04:33.750Z,9.745416
2022-09-30T07:05:32.714Z,9.745452
2022-09-30T07:06:32.706Z,9.745471
2022-09-30T07:07:32.702Z,9.745544
2022-09-30T07:08:32.693Z,9.745241
2022-09-30T07:09:32.743Z,9.745216
2022-09-30T07:10:32.671Z,9.745577
2022-09-30T07:11:32.672Z,9.745525
2022-09-30T07:12:32.669Z,9.745472
2022-09-30T07:13:32.648Z,9.745385
2022-09-30T07:14:32.658Z,9.745407
2022-09-30T07:15:32.727Z,9.745380
2022-09-30T07:16:32.645Z,9.745438
2022-09-30T07:17:32.627Z,9.745461
2022-09-30T07:18:32.612Z,9.745398
2022-09-30T07:19:32.624Z,9.745249
2022-09-30T07:20:32.594Z,9.745450
2022-09-30T07:21:32.588Z,9.745491
2022-09-30T07:22:32.577Z,9.745515
2022-09-30T07:23:32.565Z,9.745613
2022-09-30T07:24:32.582Z,9.745683
2022-09-30T07:25:32.555Z,9.745731
2022-09-30T07:26:32.542Z,9.745769
2022-09-30T07:27:32.539Z,9.745798
2022-09-30T07:28:32.536Z,9.745702
2022-09-30T07:29:50.148Z,9.745552
2022-09-30T07:30:34.521Z,9.745584
2022-09-30T07:31:34.675Z,9.745278
2022-09-30T07:32:33.541Z,9.745390
2022-09-30T07:33:32.507Z,9.745429
2022-09-30T07:34:32.517Z,9.745522
2022-09-30T07:35:32.479Z,9.745778
2022-09-30T07:36:33.737Z,9.745859
2022-09-30T07:37:33.467Z,9.745839
2022-09-30T07:38:32.485Z,9.746069
2022-09-30T07:39:32.476Z,9.745910
2022-09-30T07:40:32.450Z,9.745701
2022-09-30T07:41:32.434Z,9.745689
2022-09-30T07:42:32.423Z,9.745596
2022-09-30T07:43:32.419Z,9.745759
2022-09-30T07:44:32.435Z,9.745588
2022-09-30T07:45:32.484Z,9.745320
2022-09-30T07:46:32.397Z,9.745525
2022-09-30T07:47:32.385Z,9.745406
2022-09-30T07:48:32.377Z,9.745661
2022-09-30T07:49:32.547Z,9.745617
2022-09-30T07:50:32.364Z,9.745363
2022-09-30T07:51:32.358Z,9.745434
2022-09-30T07:52:32.345Z,9.745611
2022-09-30T07:53:32.333Z,9.745554
2022-09-30T07:54:32.354Z,9.745145
2022-09-30T07:55:32.329Z,9.745398
2022-09-30T07:56:51.205Z,9.745411
2022-09-30T07:57:34.312Z,9.745334
2022-09-30T07:58:32.298Z,9.745790
2022-09-30T07:59:32.334Z,9.745399
2022-09-30T08:00:42.710Z,9.745495
2022-09-30T08:01:34.334Z,9.744870
2022-09-30T08:02:32.322Z,9.744853
2022-09-30T08:03:32.262Z,9.745611
2022-09-30T08:04:32.287Z,9.745836
2022-09-30T08:05:32.245Z,9.745894
2022-09-30T08:06:32.243Z,9.745738
2022-09-30T08:07:32.237Z,9.745625
2022-09-30T08:08:32.228Z,9.745677
2022-09-30T08:09:32.293Z,9.745708
2022-09-30T08:10:32.257Z,9.746097
2022-09-30T08:11:32.205Z,9.745841
2022-09-30T08:12:32.194Z,9.745543
2022-09-30T08:13:32.187Z,9.745663
2022-09-30T08:14:32.214Z,9.745288
2022-09-30T08:15:32.177Z,9.745646
2022-09-30T08:16:32.200Z,9.745343
2022-09-30T08:17:32.153Z,9.745532
2022-09-30T08:18:32.152Z,9.745596
2022-09-30T08:19:32.577Z,9.745545
2022-09-30T08:20:32.131Z,9.745505
2022-09-30T08:21:32.122Z,9.745492
2022-09-30T08:22:32.118Z,9.745399
2022-09-30T08:23:32.118Z,9.745388
2022-09-30T08:24:32.235Z,9.745577
2022-09-30T08:25:32.092Z,9.745571
2022-09-30T08:26:32.081Z,9.745385
2022-09-30T08:27:32.093Z,9.745292
2022-09-30T08:28:32.071Z,9.745495
2022-09-30T08:30:34.047Z,9.745968
2022-09-30T08:31:32.068Z,9.745962
2022-09-30T08:32:32.036Z,9.745848
2022-09-30T08:33:32.031Z,9.745864
2022-09-30T08:34:32.048Z,9.745733
2022-09-30T08:35:32.016Z,9.745714
2022-09-30T08:36:32.000Z,9.745584
2022-09-30T08:37:32.003Z,9.745630
2022-09-30T08:38:31.987Z,9.745763
2022-09-30T08:39:32.011Z,9.745777
2022-09-30T08:40:31.967Z,9.745672
2022-09-30T08:41:31.963Z,9.745671
2022-09-30T08:42:37.199Z,9.745700
2022-09-30T08:43:33.951Z,9.745586
2022-09-30T08:44:31.961Z,9.745522
2022-09-30T08:45:31.996Z,9.745612
2022-09-30T08:46:31.983Z,9.745506
2022-09-30T08:47:31.917Z,9.745413
2022-09-30T08:48:31.904Z,9.745602
2022-09-30T08:49:31.920Z,9.745676
2022-09-30T08:50:31.890Z,9.745661
2022-09-30T08:51:31.883Z,9.745638
2022-09-30T08:52:47.905Z,9.745512
2022-09-30T08:53:33.870Z,9.745518
2022-09-30T08:54:32.976Z,9.745535
2022-09-30T08:55:31.859Z,9.745489
2022-09-30T08:56:31.843Z,9.745710
2022-09-30T08:57:31.838Z,9.745625
2022-09-30T08:58:31.822Z,9.745512
2022-09-30T08:59:31.843Z,9.745219
2022-09-30T09:00:31.806Z,9.745446
2022-09-30T09:01:31.885Z,9.745761
2022-09-30T09:02:31.851Z,9.745757
2022-09-30T09:03:31.785Z,9.745607
2022-09-30T09:04:31.867Z,9.745183
2022-09-30T09:05:31.768Z,9.745267
2022-09-30T09:06:31.765Z,9.745297
2022-09-30T09:07:31.752Z,9.745440
2022-09-30T09:08:31.747Z,9.745407
2022-09-30T09:09:31.764Z,9.745655
2022-09-30T09:10:31.727Z,9.745627
2022-09-30T09:11:31.727Z,9.745734
2022-09-30T09:12:31.717Z,9.745708
2022-09-30T09:13:31.713Z,9.745660
2022-09-30T09:14:31.742Z,9.745750
2022-09-30T09:15:31.702Z,9.745491
2022-09-30T09:16:31.733Z,9.745590
2022-09-30T09:17:31.680Z,9.745178
2022-09-30T09:18:31.677Z,9.745167
2022-09-30T09:19:31.684Z,9.745885
2022-09-30T09:20:31.653Z,9.745878
2022-09-30T09:21:31.647Z,9.745372
2022-09-30T09:22:31.663Z,9.745483
2022-09-30T09:23:31.634Z,9.745456
2022-09-30T09:24:31.654Z,9.745710
2022-09-30T09:25:31.614Z,9.745765
2022-09-30T09:26:31.611Z,9.745410
2022-09-30T09:27:31.783Z,9.745431
2022-09-30T09:28:31.671Z,9.745368
2022-09-30T09:29:31.630Z,9.745440
2022-09-30T09:30:31.587Z,9.745369
2022-09-30T09:31:31.618Z,9.745394
2022-09-30T09:32:31.560Z,9.745358
2022-09-30T09:33:31.554Z,9.745277
2022-09-30T09:34:31.548Z,9.745322
2022-09-30T09:35:31.561Z,9.745440
2022-09-30T09:36:31.532Z,9.745429
2022-09-30T09:37:31.524Z,9.745310
2022-09-30T09:38:31.519Z,9.745451
2022-09-30T09:39:31.508Z,9.745421
2022-09-30T09:40:31.529Z,9.745343
2022-09-30T09:41:31.489Z,9.745366
2022-09-30T09:42:31.525Z,9.745371
2022-09-30T09:43:31.484Z,9.745250
2022-09-30T09:44:31.470Z,9.745451
2022-09-30T09:45:31.556Z,9.745375
2022-09-30T09:46:31.470Z,9.745333
2022-09-30T09:47:31.437Z,9.745360
2022-09-30T09:48:32.457Z,9.745444
2022-09-30T09:49:31.430Z,9.745493
2022-09-30T09:50:31.449Z,9.745502
2022-09-30T09:51:31.411Z,9.745673
2022-09-30T09:52:31.408Z,9.745926
2022-09-30T09:53:31.401Z,9.745912
2022-09-30T09:54:31.395Z,9.745893
2022-09-30T09:55:31.409Z,9.746052
2022-09-30T09:56:32.651Z,9.745589
2022-09-30T09:57:32.458Z,9.745664
2022-09-30T09:58:31.362Z,9.745491
2022-09-30T09:59:31.352Z,9.745500
2022-09-30T10:00:31.383Z,9.745544
2022-09-30T10:01:31.434Z,9.745442
2022-09-30T10:02:31.354Z,9.745597
2022-09-30T10:03:31.322Z,9.745739
2022-09-30T10:04:31.313Z,9.745910
2022-09-30T10:05:31.335Z,9.745987
2022-09-30T10:06:31.298Z,9.745864
2022-09-30T10:07:31.289Z,9.745811
2022-09-30T10:08:31.282Z,9.745305
2022-09-30T10:09:31.276Z,9.745632
2022-09-30T10:10:31.259Z,9.745665
2022-09-30T10:11:31.279Z,9.745512
2022-09-30T10:12:31.250Z,9.745471
2022-09-30T10:13:31.256Z,9.745302
2022-09-30T10:14:31.237Z,9.745774
2022-09-30T10:15:31.225Z,9.746071
2022-09-30T10:16:31.241Z,9.745686
2022-09-30T10:17:31.204Z,9.745592
2022-09-30T10:18:31.201Z,9.745332
2022-09-30T10:19:31.189Z,9.745109
2022-09-30T10:20:31.184Z,9.745214
2022-09-30T10:21:31.203Z,9.745111
2022-09-30T10:22:31.166Z,9.745226
2022-09-30T10:23:31.160Z,9.745856
2022-09-30T10:24:31.153Z,9.745767
2022-09-30T10:25:31.711Z,9.746117
2022-09-30T10:26:31.164Z,9.746110
2022-09-30T10:27:31.125Z,9.745687
2022-09-30T10:28:31.209Z,9.745472
2022-09-30T10:29:31.766Z,9.745638
2022-09-30T10:30:31.106Z,9.745558
2022-09-30T10:31:31.212Z,9.745137
2022-09-30T10:32:31.084Z,9.745527
2022-09-30T10:33:31.080Z,9.745599
2022-09-30T10:34:31.138Z,9.745541
2022-09-30T10:35:31.062Z,9.745586
2022-09-30T10:36:31.069Z,9.745567
2022-09-30T10:37:32.045Z,9.745577
2022-09-30T10:38:31.090Z,9.745484
2022-09-30T10:39:31.037Z,9.745597
2022-09-30T10:40:31.021Z,9.745862
2022-09-30T10:41:31.036Z,9.745745
2022-09-30T10:42:31.009Z,9.745606
2022-09-30T10:43:30.997Z,9.745536
2022-09-30T10:44:30.986Z,9.745481
2022-09-30T10:45:31.009Z,9.745656
2022-09-30T10:46:31.062Z,9.745692
2022-09-30T10:47:36.382Z,9.745582
2022-09-30T10:48:32.959Z,9.745662
2022-09-30T10:49:30.943Z,9.745653
2022-09-30T10:50:30.943Z,9.745610
2022-09-30T10:51:30.955Z,9.745528
2022-09-30T10:52:30.926Z,9.745591
2022-09-30T10:53:30.912Z,9.745749
2022-09-30T10:54:30.906Z,9.745709
2022-09-30T10:55:30.896Z,9.745554
2022-09-30T10:56:30.916Z,9.745631
2022-09-30T10:57:30.878Z,9.745539
2022-09-30T10:58:30.871Z,9.745549
2022-09-30T10:59:31.512Z,9.745480
2022-09-30T11:00:30.861Z,9.745420
2022-09-30T11:01:31.256Z,9.744825
2022-09-30T11:02:30.854Z,9.745314
2022-09-30T11:03:30.921Z,9.745574
2022-09-30T11:04:30.824Z,9.745198
2022-09-30T11:05:30.828Z,9.745196
2022-09-30T11:06:30.809Z,9.745580
2022-09-30T11:07:30.828Z,9.745636
2022-09-30T11:08:30.789Z,9.745584
2022-09-30T11:09:30.785Z,9.745562
2022-09-30T11:10:30.795Z,9.745357
2022-09-30T11:11:30.769Z,9.745646
2022-09-30T11:12:30.787Z,9.745718
2022-09-30T11:13:30.754Z,9.745882
2022-09-30T11:14:30.748Z,9.745706
2022-09-30T11:15:30.749Z,9.745417
2022-09-30T11:16:31.301Z,9.745273
2022-09-30T11:17:30.743Z,9.745522
2022-09-30T11:18:30.714Z,9.745476
2022-09-30T11:19:30.707Z,9.744976
2022-09-30T11:20:30.697Z,9.745669
2022-09-30T11:21:30.688Z,9.745769
2022-09-30T11:22:30.710Z,9.746011
2022-09-30T11:23:30.675Z,9.745895
2022-09-30T11:24:30.678Z,9.745954
2022-09-30T11:25:30.658Z,9.746075
2022-09-30T11:26:30.704Z,9.746034
2022-09-30T11:27:30.665Z,9.745897
2022-09-30T11:28:30.633Z,9.745879
2022-09-30T11:29:30.633Z,9.745790
2022-09-30T11:30:30.617Z,9.745655
2022-09-30T11:31:30.642Z,9.745815
2022-09-30T11:32:30.622Z,9.745683
2022-09-30T11:33:30.595Z,9.745597
2022-09-30T11:34:30.585Z,9.745621
2022-09-30T11:35:30.576Z,9.746031
2022-09-30T11:36:30.688Z,9.745869
2022-09-30T11:37:30.587Z,9.745704
2022-09-30T11:38:30.553Z,9.745594
2022-09-30T11:39:30.546Z,9.745547
2022-09-30T11:40:30.536Z,9.745673
2022-09-30T11:41:30.523Z,9.745628
2022-09-30T11:42:30.544Z,9.745678
2022-09-30T11:43:30.507Z,9.745914
2022-09-30T11:44:30.504Z,9.745715
2022-09-30T11:45:30.524Z,9.745711